createdAt,value
2018-12-16T00:00:30.711Z,22.10
2018-12-16T00:01:02.309Z,22.08
2018-12-16T00:01:33.920Z,22.07
2018-12-16T00:02:05.526Z,22.03
2018-12-16T00:02:37.146Z,22.01
2018-12-16T00:03:08.742Z,21.99
2018-12-16T00:03:40.333Z,21.95
2018-12-16T00:04:11.928Z,21.94
2018-12-16T00:04:49.658Z,21.92
2018-12-16T00:05:15.204Z,21.90
2018-12-16T00:05:46.812Z,21.88
2018-12-16T00:06:18.405Z,21.82
2018-12-16T00:06:49.997Z,21.81
2018-12-16T00:07:21.580Z,21.80
2018-12-16T00:07:53.212Z,21.78
2018-12-16T00:08:24.795Z,21.75
2018-12-16T00:08:56.390Z,21.74
2018-12-16T00:09:28.041Z,21.72
2018-12-16T00:09:59.638Z,21.68
2018-12-16T00:10:31.248Z,21.67
2018-12-16T00:11:02.843Z,21.64
2018-12-16T00:11:34.443Z,21.62
2018-12-16T00:12:06.051Z,21.60
2018-12-16T00:12:37.669Z,21.60
2018-12-16T00:13:09.272Z,21.58
2018-12-16T00:13:40.916Z,21.55
2018-12-16T00:14:12.520Z,21.54
2018-12-16T00:14:44.119Z,21.51
2018-12-16T00:15:15.762Z,21.49
2018-12-16T00:15:47.359Z,21.48
2018-12-16T00:16:18.945Z,21.46
2018-12-16T00:16:50.528Z,21.45
2018-12-16T00:17:22.135Z,21.43
2018-12-16T00:17:53.761Z,21.41
2018-12-16T00:18:25.367Z,21.40
2018-12-16T00:18:56.965Z,21.39
2018-12-16T00:19:28.558Z,21.37
2018-12-16T00:20:00.144Z,21.35
2018-12-16T00:20:31.738Z,21.33
2018-12-16T00:21:03.352Z,21.30
2018-12-16T00:21:34.959Z,21.31
2018-12-16T00:22:06.541Z,21.29
2018-12-16T00:22:38.157Z,21.29
2018-12-16T00:23:09.763Z,21.24
2018-12-16T00:23:41.372Z,21.25
2018-12-16T00:24:12.984Z,21.25
2018-12-16T00:24:44.600Z,21.24
2018-12-16T00:25:16.214Z,21.22
2018-12-16T00:25:47.829Z,21.24
2018-12-16T00:26:19.429Z,21.24
2018-12-16T00:26:51.025Z,21.25
2018-12-16T00:27:22.622Z,21.28
2018-12-16T00:27:54.275Z,21.31
2018-12-16T00:28:25.879Z,21.35
2018-12-16T00:28:57.482Z,21.38
2018-12-16T00:29:29.092Z,21.40
2018-12-16T00:30:00.685Z,21.44
2018-12-16T00:30:32.264Z,21.48
2018-12-16T00:31:03.872Z,21.52
2018-12-16T00:31:35.470Z,21.56
2018-12-16T00:32:07.079Z,21.61
2018-12-16T00:32:38.684Z,21.65
2018-12-16T00:33:10.301Z,21.68
2018-12-16T00:33:41.908Z,21.73
2018-12-16T00:34:13.515Z,21.77
2018-12-16T00:34:45.106Z,21.81
2018-12-16T00:35:16.701Z,21.89
2018-12-16T00:35:48.308Z,21.99
2018-12-16T00:36:19.905Z,22.07
2018-12-16T00:36:51.511Z,22.13
2018-12-16T00:37:23.123Z,22.18
2018-12-16T00:37:54.732Z,22.24
2018-12-16T00:38:26.343Z,22.31
2018-12-16T00:38:57.956Z,22.37
2018-12-16T00:39:29.554Z,22.44
2018-12-16T00:40:01.146Z,22.49
2018-12-16T00:40:32.742Z,22.53
2018-12-16T00:41:04.337Z,22.58
2018-12-16T00:41:35.929Z,22.60
2018-12-16T00:42:07.541Z,22.61
2018-12-16T00:42:39.147Z,22.64
2018-12-16T00:43:10.770Z,22.68
2018-12-16T00:43:42.380Z,22.70
2018-12-16T00:44:13.984Z,22.71
2018-12-16T00:44:45.589Z,22.70
2018-12-16T00:45:17.195Z,22.74
2018-12-16T00:45:48.792Z,22.71
2018-12-16T00:46:20.382Z,22.70
2018-12-16T00:46:51.998Z,22.69
2018-12-16T00:47:23.595Z,22.71
2018-12-16T00:47:55.176Z,22.75
2018-12-16T00:48:26.807Z,22.78
2018-12-16T00:48:58.482Z,22.84
2018-12-16T00:49:30.067Z,22.88
2018-12-16T00:50:01.666Z,22.92
2018-12-16T00:50:33.261Z,22.92
2018-12-16T00:51:04.858Z,22.94
2018-12-16T00:51:36.463Z,22.93
2018-12-16T00:52:08.053Z,22.93
2018-12-16T00:52:39.646Z,22.94
2018-12-16T00:53:11.247Z,22.94
2018-12-16T00:53:42.882Z,22.96
2018-12-16T00:54:14.645Z,22.97
2018-12-16T00:54:46.252Z,22.99
2018-12-16T00:55:17.858Z,22.98
2018-12-16T00:55:49.468Z,22.96
2018-12-16T00:56:21.075Z,22.95
2018-12-16T00:56:52.687Z,22.96
2018-12-16T00:57:24.295Z,22.96
2018-12-16T00:57:55.907Z,22.98
2018-12-16T00:58:27.534Z,22.99
2018-12-16T00:58:59.141Z,22.98
2018-12-16T00:59:30.740Z,22.96
2018-12-16T01:00:02.330Z,22.96
2018-12-16T01:00:33.926Z,22.96
2018-12-16T01:01:05.535Z,22.93
2018-12-16T01:01:37.140Z,22.93
2018-12-16T01:02:08.748Z,22.91
2018-12-16T01:02:41.241Z,22.89
2018-12-16T01:03:12.837Z,22.90
2018-12-16T01:03:44.464Z,22.89
2018-12-16T01:04:16.081Z,22.89
2018-12-16T01:04:47.684Z,22.88
2018-12-16T01:05:19.281Z,22.86
2018-12-16T01:05:50.878Z,22.81
2018-12-16T01:06:22.482Z,22.80
2018-12-16T01:06:54.077Z,22.79
2018-12-16T01:07:25.666Z,22.78
2018-12-16T01:07:57.252Z,22.78
2018-12-16T01:08:28.888Z,22.79
2018-12-16T01:09:00.496Z,22.76
2018-12-16T01:09:32.095Z,22.75
2018-12-16T01:10:03.703Z,22.73
2018-12-16T01:10:35.312Z,22.71
2018-12-16T01:11:06.909Z,22.67
2018-12-16T01:11:38.494Z,22.63
2018-12-16T01:12:10.086Z,22.59
2018-12-16T01:12:41.679Z,22.56
2018-12-16T01:13:13.316Z,22.53
2018-12-16T01:13:44.909Z,22.50
2018-12-16T01:14:16.515Z,22.47
2018-12-16T01:14:48.111Z,22.44
2018-12-16T01:15:19.719Z,22.34
2018-12-16T01:15:51.313Z,22.41
2018-12-16T01:16:22.901Z,22.41
2018-12-16T01:16:54.497Z,22.39
2018-12-16T01:17:26.103Z,22.36
2018-12-16T01:17:57.759Z,22.36
2018-12-16T01:18:29.356Z,22.35
2018-12-16T01:19:00.953Z,22.32
2018-12-16T01:19:32.550Z,22.29
2018-12-16T01:20:04.148Z,22.27
2018-12-16T01:20:35.779Z,22.24
2018-12-16T01:21:07.388Z,22.21
2018-12-16T01:21:38.976Z,22.18
2018-12-16T01:22:10.587Z,22.14
2018-12-16T01:22:43.554Z,22.12
2018-12-16T01:23:13.863Z,22.10
2018-12-16T01:23:45.473Z,22.08
2018-12-16T01:24:18.349Z,22.05
2018-12-16T01:24:48.701Z,22.03
2018-12-16T01:25:20.297Z,22.01
2018-12-16T01:25:51.909Z,21.98
2018-12-16T01:26:23.501Z,21.95
2018-12-16T01:26:55.079Z,21.91
2018-12-16T01:27:26.684Z,21.87
2018-12-16T01:27:58.295Z,21.85
2018-12-16T01:28:29.880Z,21.83
2018-12-16T01:29:01.516Z,21.83
2018-12-16T01:29:33.123Z,21.85
2018-12-16T01:30:04.730Z,21.89
2018-12-16T01:30:36.326Z,21.88
2018-12-16T01:31:07.932Z,21.79
2018-12-16T01:31:39.535Z,21.74
2018-12-16T01:32:11.154Z,21.68
2018-12-16T01:32:42.765Z,21.64
2018-12-16T01:33:14.384Z,21.60
2018-12-16T01:33:45.981Z,21.53
2018-12-16T01:34:17.599Z,21.53
2018-12-16T01:34:49.180Z,21.51
2018-12-16T01:35:20.773Z,21.50
2018-12-16T01:35:52.383Z,21.49
2018-12-16T01:36:23.992Z,21.47
2018-12-16T01:36:55.585Z,21.46
2018-12-16T01:37:27.197Z,21.45
2018-12-16T01:37:58.793Z,21.45
2018-12-16T01:38:30.390Z,21.43
2018-12-16T01:39:01.972Z,21.41
2018-12-16T01:39:33.592Z,21.40
2018-12-16T01:40:05.202Z,21.38
2018-12-16T01:40:36.806Z,21.38
2018-12-16T01:41:08.425Z,21.38
2018-12-16T01:41:40.026Z,21.38
2018-12-16T01:42:11.627Z,21.35
2018-12-16T01:42:43.222Z,21.36
2018-12-16T01:43:14.838Z,21.35
2018-12-16T01:43:46.443Z,21.35
2018-12-16T01:44:18.056Z,21.35
2018-12-16T01:44:49.660Z,21.34
2018-12-16T01:45:21.257Z,21.34
2018-12-16T01:45:52.856Z,21.34
2018-12-16T01:46:24.459Z,21.36
2018-12-16T01:46:56.068Z,21.40
2018-12-16T01:47:27.652Z,21.42
2018-12-16T01:47:59.250Z,21.44
2018-12-16T01:48:30.842Z,21.45
2018-12-16T01:49:02.437Z,21.48
2018-12-16T01:49:34.069Z,21.51
2018-12-16T01:50:05.655Z,21.53
2018-12-16T01:50:37.253Z,21.55
2018-12-16T01:51:08.863Z,21.59
2018-12-16T01:51:40.464Z,21.61
2018-12-16T01:52:12.068Z,21.65
2018-12-16T01:52:49.993Z,21.69
2018-12-16T01:53:15.310Z,21.72
2018-12-16T01:53:46.904Z,21.75
2018-12-16T01:54:18.497Z,21.79
2018-12-16T01:54:50.104Z,21.81
2018-12-16T01:55:21.707Z,21.85
2018-12-16T01:55:53.312Z,21.90
2018-12-16T01:56:24.913Z,21.94
2018-12-16T01:56:56.520Z,21.98
2018-12-16T01:57:28.128Z,22.03
2018-12-16T01:57:59.777Z,22.05
2018-12-16T01:58:31.360Z,22.09
2018-12-16T01:59:02.959Z,22.12
2018-12-16T01:59:34.602Z,22.15
2018-12-16T02:00:06.193Z,22.17
2018-12-16T02:00:37.779Z,22.19
2018-12-16T02:01:09.374Z,22.24
2018-12-16T02:01:40.979Z,22.28
2018-12-16T02:02:12.588Z,22.31
2018-12-16T02:02:44.182Z,22.34
2018-12-16T02:03:15.777Z,22.40
2018-12-16T02:03:47.377Z,22.43
2018-12-16T02:04:19.003Z,22.45
2018-12-16T02:04:50.640Z,22.48
2018-12-16T02:05:22.247Z,22.51
2018-12-16T02:05:53.860Z,22.54
2018-12-16T02:06:25.454Z,22.54
2018-12-16T02:06:57.055Z,22.57
2018-12-16T02:07:28.649Z,22.55
2018-12-16T02:08:00.241Z,22.59
2018-12-16T02:08:31.828Z,22.63
2018-12-16T02:09:03.419Z,22.65
2018-12-16T02:09:35.035Z,22.67
2018-12-16T02:10:06.654Z,22.71
2018-12-16T02:10:38.263Z,22.78
2018-12-16T02:11:09.871Z,22.82
2018-12-16T02:11:41.452Z,22.85
2018-12-16T02:12:13.050Z,22.87
2018-12-16T02:12:44.636Z,22.90
2018-12-16T02:13:16.240Z,22.90
2018-12-16T02:13:47.843Z,22.91
2018-12-16T02:14:19.451Z,22.93
2018-12-16T02:14:51.079Z,22.92
2018-12-16T02:15:22.679Z,22.93
2018-12-16T02:15:54.281Z,22.96
2018-12-16T02:16:25.901Z,22.98
2018-12-16T02:16:57.498Z,22.99
2018-12-16T02:17:29.104Z,23.00
2018-12-16T02:18:00.720Z,22.99
2018-12-16T02:18:32.314Z,22.97
2018-12-16T02:19:03.905Z,22.95
2018-12-16T02:19:35.508Z,22.86
2018-12-16T02:20:07.115Z,22.91
2018-12-16T02:20:38.709Z,22.90
2018-12-16T02:21:10.293Z,22.88
2018-12-16T02:21:41.886Z,22.84
2018-12-16T02:22:13.495Z,22.82
2018-12-16T02:22:45.098Z,22.79
2018-12-16T02:23:16.708Z,22.77
2018-12-16T02:23:48.323Z,22.74
2018-12-16T02:24:19.935Z,22.73
2018-12-16T02:24:51.529Z,22.72
2018-12-16T02:25:23.146Z,22.70
2018-12-16T02:25:54.737Z,22.70
2018-12-16T02:26:26.461Z,22.66
2018-12-16T02:26:58.060Z,22.65
2018-12-16T02:27:29.668Z,22.65
2018-12-16T02:28:01.262Z,22.65
2018-12-16T02:28:32.853Z,22.65
2018-12-16T02:29:04.445Z,22.62
2018-12-16T02:29:36.028Z,22.62
2018-12-16T02:30:07.665Z,22.59
2018-12-16T02:30:39.263Z,22.59
2018-12-16T02:31:10.861Z,22.57
2018-12-16T02:31:42.473Z,22.53
2018-12-16T02:32:14.060Z,22.49
2018-12-16T02:32:45.673Z,22.45
2018-12-16T02:33:17.284Z,22.43
2018-12-16T02:33:48.898Z,22.42
2018-12-16T02:34:20.513Z,22.38
2018-12-16T02:34:52.107Z,22.36
2018-12-16T02:35:23.738Z,22.34
2018-12-16T02:35:55.346Z,22.33
2018-12-16T02:36:26.952Z,22.31
2018-12-16T02:36:58.556Z,22.27
2018-12-16T02:37:30.172Z,22.27
2018-12-16T02:38:01.771Z,22.26
2018-12-16T02:38:33.380Z,22.24
2018-12-16T02:39:04.974Z,22.20
2018-12-16T02:39:36.570Z,22.19
2018-12-16T02:40:08.177Z,22.17
2018-12-16T02:40:39.785Z,22.17
2018-12-16T02:41:11.396Z,22.14
2018-12-16T02:41:42.980Z,22.12
2018-12-16T02:42:14.564Z,22.11
2018-12-16T02:42:46.182Z,22.09
2018-12-16T02:43:17.778Z,22.06
2018-12-16T02:43:49.375Z,22.05
2018-12-16T02:44:20.983Z,22.02
2018-12-16T02:44:52.590Z,21.99
2018-12-16T02:45:24.218Z,21.97
2018-12-16T02:45:55.813Z,21.95
2018-12-16T02:46:27.408Z,21.93
2018-12-16T02:46:59.015Z,21.91
2018-12-16T02:47:30.629Z,21.88
2018-12-16T02:48:02.233Z,21.85
2018-12-16T02:48:33.833Z,21.81
2018-12-16T02:49:05.419Z,21.79
2018-12-16T02:49:37.028Z,21.76
2018-12-16T02:50:08.637Z,21.76
2018-12-16T02:50:40.262Z,21.75
2018-12-16T02:51:11.858Z,21.73
2018-12-16T02:51:43.459Z,21.71
2018-12-16T02:52:15.062Z,21.71
2018-12-16T02:52:46.672Z,21.66
2018-12-16T02:53:18.266Z,21.66
2018-12-16T02:53:49.859Z,21.63
2018-12-16T02:54:21.472Z,21.60
2018-12-16T02:54:53.066Z,21.57
2018-12-16T02:55:24.666Z,21.54
2018-12-16T02:55:56.295Z,21.32
2018-12-16T02:56:27.908Z,21.49
2018-12-16T02:56:59.513Z,21.47
2018-12-16T02:57:31.111Z,21.46
2018-12-16T02:58:02.720Z,21.45
2018-12-16T02:58:34.326Z,21.43
2018-12-16T02:59:05.930Z,21.42
2018-12-16T02:59:37.539Z,21.40
2018-12-16T03:00:09.134Z,21.39
2018-12-16T03:00:40.776Z,21.37
2018-12-16T03:01:12.369Z,21.35
2018-12-16T03:01:43.983Z,21.34
2018-12-16T03:02:15.576Z,21.32
2018-12-16T03:02:47.188Z,21.30
2018-12-16T03:03:18.796Z,21.30
2018-12-16T03:03:50.389Z,21.29
2018-12-16T03:04:21.989Z,21.29
2018-12-16T03:04:53.581Z,21.28
2018-12-16T03:05:25.184Z,21.27
2018-12-16T03:05:56.825Z,21.25
2018-12-16T03:06:28.437Z,21.25
2018-12-16T03:07:00.053Z,21.26
2018-12-16T03:07:31.668Z,21.25
2018-12-16T03:08:03.266Z,21.26
2018-12-16T03:08:34.876Z,21.27
2018-12-16T03:09:06.474Z,21.27
2018-12-16T03:09:38.084Z,21.31
2018-12-16T03:10:09.678Z,21.36
2018-12-16T03:10:41.275Z,21.37
2018-12-16T03:11:12.893Z,21.44
2018-12-16T03:11:44.504Z,21.48
2018-12-16T03:12:16.102Z,21.52
2018-12-16T03:12:47.701Z,21.55
2018-12-16T03:13:19.304Z,21.58
2018-12-16T03:13:50.901Z,21.66
2018-12-16T03:14:22.493Z,21.69
2018-12-16T03:14:54.102Z,21.72
2018-12-16T03:15:25.697Z,21.73
2018-12-16T03:15:57.337Z,21.74
2018-12-16T03:16:28.934Z,21.77
2018-12-16T03:17:00.530Z,21.81
2018-12-16T03:17:32.126Z,21.90
2018-12-16T03:18:03.723Z,21.92
2018-12-16T03:18:35.503Z,21.98
2018-12-16T03:19:07.099Z,21.97
2018-12-16T03:19:38.703Z,22.01
2018-12-16T03:20:10.300Z,22.01
2018-12-16T03:20:42.945Z,22.04
2018-12-16T03:21:13.650Z,22.06
2018-12-16T03:21:45.252Z,22.09
2018-12-16T03:22:16.855Z,22.12
2018-12-16T03:22:48.463Z,22.15
2018-12-16T03:23:20.058Z,22.18
2018-12-16T03:23:51.653Z,22.22
2018-12-16T03:24:23.262Z,22.24
2018-12-16T03:24:54.841Z,22.29
2018-12-16T03:25:26.448Z,22.35
2018-12-16T03:25:58.104Z,22.38
2018-12-16T03:26:35.858Z,22.41
2018-12-16T03:27:01.368Z,22.41
2018-12-16T03:27:32.970Z,22.43
2018-12-16T03:28:04.580Z,22.45
2018-12-16T03:28:36.242Z,22.44
2018-12-16T03:29:07.846Z,22.47
2018-12-16T03:29:39.441Z,22.47
2018-12-16T03:30:11.049Z,22.49
2018-12-16T03:30:42.683Z,22.51
2018-12-16T03:31:14.361Z,22.54
2018-12-16T03:31:45.935Z,22.55
2018-12-16T03:32:17.531Z,22.56
2018-12-16T03:32:49.129Z,22.57
2018-12-16T03:33:20.731Z,22.40
2018-12-16T03:33:52.325Z,22.61
2018-12-16T03:34:23.922Z,22.61
2018-12-16T03:34:55.523Z,22.63
2018-12-16T03:35:27.132Z,22.63
2018-12-16T03:35:58.744Z,22.64
2018-12-16T03:36:30.380Z,22.65
2018-12-16T03:37:01.983Z,22.69
2018-12-16T03:37:33.580Z,22.70
2018-12-16T03:38:05.164Z,22.70
2018-12-16T03:38:36.762Z,22.71
2018-12-16T03:39:08.353Z,22.70
2018-12-16T03:39:39.932Z,22.68
2018-12-16T03:40:11.517Z,22.71
2018-12-16T03:40:43.124Z,22.69
2018-12-16T03:41:14.756Z,22.70
2018-12-16T03:41:46.369Z,22.70
2018-12-16T03:42:17.977Z,22.70
2018-12-16T03:42:49.589Z,22.62
2018-12-16T03:43:21.192Z,22.69
2018-12-16T03:43:52.794Z,22.66
2018-12-16T03:44:24.389Z,22.66
2018-12-16T03:44:55.995Z,22.65
2018-12-16T03:45:27.589Z,22.66
2018-12-16T03:45:59.186Z,22.66
2018-12-16T03:46:30.809Z,22.64
2018-12-16T03:47:02.420Z,22.63
2018-12-16T03:47:34.038Z,22.62
2018-12-16T03:48:05.635Z,22.61
2018-12-16T03:48:37.230Z,22.60
2018-12-16T03:49:08.916Z,22.56
2018-12-16T03:49:40.523Z,22.54
2018-12-16T03:50:12.129Z,22.54
2018-12-16T03:50:43.737Z,22.52
2018-12-16T03:51:15.333Z,22.51
2018-12-16T03:51:46.968Z,22.49
2018-12-16T03:52:18.581Z,22.49
2018-12-16T03:52:50.182Z,22.48
2018-12-16T03:53:21.796Z,22.46
2018-12-16T03:53:53.407Z,22.45
2018-12-16T03:54:25.003Z,22.42
2018-12-16T03:54:56.598Z,22.40
2018-12-16T03:55:28.209Z,22.38
2018-12-16T03:55:59.795Z,22.36
2018-12-16T03:56:31.472Z,22.35
2018-12-16T03:57:03.088Z,22.32
2018-12-16T03:57:34.706Z,22.30
2018-12-16T03:58:06.306Z,22.27
2018-12-16T03:58:37.898Z,22.25
2018-12-16T03:59:09.490Z,22.23
2018-12-16T03:59:41.084Z,22.23
2018-12-16T04:00:12.692Z,22.21
2018-12-16T04:00:44.292Z,22.19
2018-12-16T04:01:15.886Z,22.17
2018-12-16T04:01:53.292Z,22.18
2018-12-16T04:02:24.887Z,22.16
2018-12-16T04:02:56.490Z,22.13
2018-12-16T04:03:28.086Z,22.12
2018-12-16T04:03:59.679Z,22.11
2018-12-16T04:04:31.278Z,22.12
2018-12-16T04:05:02.877Z,22.11
2018-12-16T04:05:34.487Z,22.09
2018-12-16T04:06:06.076Z,22.08
2018-12-16T04:06:37.723Z,22.07
2018-12-16T04:07:09.350Z,22.04
2018-12-16T04:07:40.959Z,22.01
2018-12-16T04:08:12.563Z,21.99
2018-12-16T04:08:44.158Z,21.98
2018-12-16T04:09:15.764Z,21.97
2018-12-16T04:09:47.357Z,21.95
2018-12-16T04:10:18.963Z,21.91
2018-12-16T04:10:50.561Z,21.90
2018-12-16T04:11:22.158Z,21.88
2018-12-16T04:11:53.801Z,21.83
2018-12-16T04:12:25.380Z,21.81
2018-12-16T04:12:56.988Z,21.78
2018-12-16T04:13:28.600Z,21.79
2018-12-16T04:14:00.189Z,21.78
2018-12-16T04:14:31.782Z,21.76
2018-12-16T04:15:03.388Z,21.75
2018-12-16T04:15:34.986Z,21.72
2018-12-16T04:16:07.168Z,21.71
2018-12-16T04:16:38.804Z,21.70
2018-12-16T04:17:10.411Z,21.67
2018-12-16T04:17:42.005Z,21.64
2018-12-16T04:18:13.607Z,21.66
2018-12-16T04:18:45.203Z,21.64
2018-12-16T04:19:16.807Z,21.62
2018-12-16T04:19:48.411Z,21.59
2018-12-16T04:20:20.015Z,21.58
2018-12-16T04:20:51.627Z,21.55
2018-12-16T04:21:23.226Z,21.54
2018-12-16T04:21:54.880Z,21.54
2018-12-16T04:22:26.489Z,21.53
2018-12-16T04:22:58.081Z,21.50
2018-12-16T04:23:29.681Z,21.51
2018-12-16T04:24:01.275Z,21.51
2018-12-16T04:24:32.875Z,21.51
2018-12-16T04:25:04.469Z,21.49
2018-12-16T04:25:36.076Z,21.50
2018-12-16T04:26:07.688Z,21.50
2018-12-16T04:26:39.297Z,21.49
2018-12-16T04:27:10.894Z,21.49
2018-12-16T04:27:42.500Z,21.50
2018-12-16T04:28:14.118Z,21.49
2018-12-16T04:28:45.727Z,21.51
2018-12-16T04:29:17.326Z,21.51
2018-12-16T04:29:48.923Z,21.53
2018-12-16T04:30:20.513Z,21.54
2018-12-16T04:30:52.098Z,21.56
2018-12-16T04:31:23.691Z,21.58
2018-12-16T04:31:55.314Z,21.60
2018-12-16T04:32:26.925Z,21.62
2018-12-16T04:32:58.518Z,21.64
2018-12-16T04:33:30.113Z,21.65
2018-12-16T04:34:01.710Z,21.66
2018-12-16T04:34:33.311Z,21.69
2018-12-16T04:35:04.912Z,21.71
2018-12-16T04:35:36.521Z,21.73
2018-12-16T04:36:08.132Z,21.75
2018-12-16T04:36:39.736Z,21.78
2018-12-16T04:37:11.385Z,21.81
2018-12-16T04:37:42.991Z,21.68
2018-12-16T04:38:14.584Z,21.91
2018-12-16T04:38:46.175Z,21.97
2018-12-16T04:39:17.785Z,22.00
2018-12-16T04:39:49.386Z,22.05
2018-12-16T04:40:20.975Z,22.09
2018-12-16T04:40:52.584Z,22.12
2018-12-16T04:41:24.192Z,22.15
2018-12-16T04:41:55.841Z,22.19
2018-12-16T04:42:27.466Z,22.23
2018-12-16T04:42:59.057Z,22.26
2018-12-16T04:43:30.662Z,22.29
2018-12-16T04:44:02.268Z,22.31
2018-12-16T04:44:33.886Z,22.33
2018-12-16T04:45:05.477Z,22.36
2018-12-16T04:45:37.070Z,22.38
2018-12-16T04:46:08.662Z,22.41
2018-12-16T04:46:40.328Z,22.43
2018-12-16T04:47:11.951Z,22.48
2018-12-16T04:47:43.535Z,22.50
2018-12-16T04:48:15.978Z,22.52
2018-12-16T04:48:47.630Z,22.54
2018-12-16T04:49:19.230Z,22.55
2018-12-16T04:49:50.832Z,22.55
2018-12-16T04:50:22.429Z,22.56
2018-12-16T04:50:54.022Z,22.56
2018-12-16T04:51:25.614Z,22.55
2018-12-16T04:51:57.217Z,22.55
2018-12-16T04:52:28.857Z,22.59
2018-12-16T04:53:00.464Z,22.60
2018-12-16T04:53:36.898Z,22.64
2018-12-16T04:54:03.706Z,22.65
2018-12-16T04:54:35.303Z,22.64
2018-12-16T04:55:06.913Z,22.63
2018-12-16T04:55:38.520Z,22.66
2018-12-16T04:56:10.128Z,22.66
2018-12-16T04:56:41.721Z,22.68
2018-12-16T04:57:13.305Z,22.67
2018-12-16T04:57:44.912Z,22.66
2018-12-16T04:58:16.501Z,22.67
2018-12-16T04:58:48.106Z,22.67
2018-12-16T04:59:19.702Z,22.67
2018-12-16T04:59:51.349Z,22.67
2018-12-16T05:00:22.942Z,22.66
2018-12-16T05:00:54.534Z,22.66
2018-12-16T05:01:26.126Z,22.66
2018-12-16T05:01:57.718Z,22.66
2018-12-16T05:02:29.367Z,22.65
2018-12-16T05:03:00.951Z,22.65
2018-12-16T05:03:32.541Z,22.67
2018-12-16T05:04:04.148Z,22.68
2018-12-16T05:04:35.763Z,22.67
2018-12-16T05:05:07.353Z,22.65
2018-12-16T05:05:38.945Z,22.65
2018-12-16T05:06:10.549Z,22.64
2018-12-16T05:06:42.155Z,22.64
2018-12-16T05:07:13.749Z,22.63
2018-12-16T05:07:45.357Z,22.62
2018-12-16T05:08:16.992Z,22.61
2018-12-16T05:08:48.600Z,22.66
2018-12-16T05:09:20.204Z,22.65
2018-12-16T05:09:51.801Z,22.67
2018-12-16T05:10:23.394Z,22.66
2018-12-16T05:10:54.989Z,22.66
2018-12-16T05:11:26.658Z,22.62
2018-12-16T05:11:58.259Z,22.59
2018-12-16T05:12:29.854Z,22.55
2018-12-16T05:13:01.471Z,22.54
2018-12-16T05:13:33.059Z,22.52
2018-12-16T05:14:04.668Z,22.48
2018-12-16T05:14:36.255Z,22.49
2018-12-16T05:15:07.940Z,22.48
2018-12-16T05:15:39.666Z,22.45
2018-12-16T05:16:11.774Z,22.43
2018-12-16T05:16:43.374Z,22.40
2018-12-16T05:17:14.965Z,22.38
2018-12-16T05:17:46.586Z,22.33
2018-12-16T05:18:18.184Z,22.30
2018-12-16T05:18:49.779Z,22.29
2018-12-16T05:19:21.373Z,22.27
2018-12-16T05:19:52.980Z,22.25
2018-12-16T05:20:24.633Z,22.23
2018-12-16T05:20:56.234Z,22.20
2018-12-16T05:21:27.841Z,22.18
2018-12-16T05:21:59.449Z,22.16
2018-12-16T05:22:31.045Z,22.13
2018-12-16T05:23:02.656Z,22.11
2018-12-16T05:23:34.250Z,22.09
2018-12-16T05:24:05.857Z,22.07
2018-12-16T05:24:37.450Z,22.04
2018-12-16T05:25:09.064Z,21.98
2018-12-16T05:25:40.658Z,21.97
2018-12-16T05:26:12.250Z,21.94
2018-12-16T05:26:43.856Z,21.94
2018-12-16T05:27:15.458Z,21.93
2018-12-16T05:27:47.103Z,21.91
2018-12-16T05:28:18.726Z,21.89
2018-12-16T05:28:50.324Z,21.65
2018-12-16T05:29:21.919Z,21.81
2018-12-16T05:29:53.523Z,21.79
2018-12-16T05:30:25.120Z,21.77
2018-12-16T05:30:56.727Z,21.75
2018-12-16T05:31:28.364Z,21.74
2018-12-16T05:31:59.975Z,21.72
2018-12-16T05:32:32.817Z,21.71
2018-12-16T05:33:03.250Z,21.72
2018-12-16T05:33:34.856Z,21.71
2018-12-16T05:34:06.481Z,21.70
2018-12-16T05:34:38.083Z,21.68
2018-12-16T05:35:09.668Z,21.66
2018-12-16T05:35:41.252Z,21.65
2018-12-16T05:36:12.853Z,21.63
2018-12-16T05:36:44.468Z,21.62
2018-12-16T05:37:16.080Z,21.60
2018-12-16T05:37:47.685Z,21.58
2018-12-16T05:38:19.312Z,21.57
2018-12-16T05:38:50.920Z,21.55
2018-12-16T05:39:22.518Z,21.54
2018-12-16T05:39:54.114Z,21.53
2018-12-16T05:40:25.720Z,21.51
2018-12-16T05:40:57.331Z,21.50
2018-12-16T05:41:28.926Z,21.47
2018-12-16T05:42:00.536Z,21.47
2018-12-16T05:42:32.148Z,21.46
2018-12-16T05:43:03.736Z,21.46
2018-12-16T05:43:35.353Z,21.46
2018-12-16T05:44:06.932Z,21.45
2018-12-16T05:44:38.516Z,21.43
2018-12-16T05:45:10.125Z,21.42
2018-12-16T05:45:41.723Z,21.43
2018-12-16T05:46:13.328Z,21.41
2018-12-16T05:46:44.926Z,21.41
2018-12-16T05:47:16.615Z,21.43
2018-12-16T05:47:48.239Z,21.43
2018-12-16T05:48:19.880Z,21.43
2018-12-16T05:48:51.497Z,21.43
2018-12-16T05:49:23.105Z,21.34
2018-12-16T05:49:54.702Z,21.44
2018-12-16T05:50:26.284Z,21.45
2018-12-16T05:50:57.887Z,21.46
2018-12-16T05:51:29.487Z,21.48
2018-12-16T05:52:01.086Z,21.50
2018-12-16T05:52:32.697Z,21.53
2018-12-16T05:53:04.308Z,21.58
2018-12-16T05:53:35.905Z,21.62
2018-12-16T05:54:07.488Z,21.67
2018-12-16T05:54:39.096Z,21.71
2018-12-16T05:55:10.700Z,21.76
2018-12-16T05:55:42.295Z,21.77
2018-12-16T05:56:13.898Z,21.81
2018-12-16T05:56:45.479Z,21.83
2018-12-16T05:57:17.074Z,21.84
2018-12-16T05:57:48.671Z,21.84
2018-12-16T05:58:20.268Z,21.88
2018-12-16T05:58:51.900Z,21.90
2018-12-16T05:59:23.493Z,21.89
2018-12-16T05:59:55.095Z,21.90
2018-12-16T06:00:26.707Z,21.89
2018-12-16T06:00:58.292Z,21.90
2018-12-16T06:01:29.900Z,21.90
2018-12-16T06:02:01.488Z,21.90
2018-12-16T06:02:33.086Z,21.89
2018-12-16T06:03:04.696Z,21.85
2018-12-16T06:03:36.332Z,21.84
2018-12-16T06:04:07.939Z,21.81
2018-12-16T06:04:39.520Z,21.80
2018-12-16T06:05:11.115Z,21.79
2018-12-16T06:05:42.709Z,21.77
2018-12-16T06:06:14.369Z,21.75
2018-12-16T06:06:45.980Z,21.74
2018-12-16T06:07:17.573Z,21.73
2018-12-16T06:07:49.174Z,21.71
2018-12-16T06:08:20.773Z,21.69
2018-12-16T06:08:52.400Z,21.68
2018-12-16T06:09:23.995Z,21.67
2018-12-16T06:09:55.610Z,21.60
2018-12-16T06:10:27.218Z,21.67
2018-12-16T06:10:58.810Z,21.66
2018-12-16T06:11:30.405Z,21.70
2018-12-16T06:12:01.998Z,21.73
2018-12-16T06:12:33.614Z,21.76
2018-12-16T06:13:05.227Z,21.68
2018-12-16T06:13:36.834Z,21.81
2018-12-16T06:14:08.468Z,21.85
2018-12-16T06:14:40.070Z,21.88
2018-12-16T06:15:11.881Z,21.92
2018-12-16T06:15:43.463Z,21.95
2018-12-16T06:16:15.044Z,21.96
2018-12-16T06:16:46.642Z,21.99
2018-12-16T06:17:18.252Z,22.03
2018-12-16T06:17:49.839Z,22.06
2018-12-16T06:18:21.430Z,22.09
2018-12-16T06:18:53.073Z,22.14
2018-12-16T06:19:24.675Z,22.19
2018-12-16T06:19:56.270Z,22.18
2018-12-16T06:20:27.867Z,22.19
2018-12-16T06:20:59.472Z,22.20
2018-12-16T06:21:31.056Z,22.22
2018-12-16T06:22:02.664Z,22.25
2018-12-16T06:22:34.282Z,22.28
2018-12-16T06:23:05.868Z,22.28
2018-12-16T06:23:37.459Z,22.28
2018-12-16T06:24:09.097Z,22.30
2018-12-16T06:24:40.792Z,22.32
2018-12-16T06:25:13.148Z,22.37
2018-12-16T06:25:44.804Z,22.38
2018-12-16T06:26:18.566Z,22.39
2018-12-16T06:26:50.359Z,21.93
2018-12-16T06:27:21.982Z,22.43
2018-12-16T06:27:53.565Z,22.37
2018-12-16T06:28:25.161Z,22.47
2018-12-16T06:28:56.764Z,22.49
2018-12-16T06:29:28.387Z,22.51
2018-12-16T06:29:59.981Z,22.57
2018-12-16T06:30:31.587Z,22.51
2018-12-16T06:31:03.165Z,22.62
2018-12-16T06:31:34.784Z,22.64
2018-12-16T06:32:06.388Z,22.64
2018-12-16T06:32:38.000Z,22.67
2018-12-16T06:33:09.586Z,22.67
2018-12-16T06:33:41.182Z,22.69
2018-12-16T06:34:12.811Z,22.68
2018-12-16T06:34:44.420Z,22.68
2018-12-16T06:35:16.041Z,22.69
2018-12-16T06:35:47.635Z,22.70
2018-12-16T06:36:19.234Z,22.71
2018-12-16T06:36:50.830Z,22.73
2018-12-16T06:37:22.421Z,22.75
2018-12-16T06:37:54.013Z,22.74
2018-12-16T06:38:25.605Z,22.72
2018-12-16T06:38:57.213Z,22.71
2018-12-16T06:39:28.824Z,22.70
2018-12-16T06:40:00.436Z,22.72
2018-12-16T06:40:32.036Z,22.72
2018-12-16T06:41:03.639Z,22.70
2018-12-16T06:41:35.234Z,22.69
2018-12-16T06:42:06.825Z,22.70
2018-12-16T06:42:38.436Z,22.70
2018-12-16T06:43:10.034Z,22.67
2018-12-16T06:43:41.701Z,22.68
2018-12-16T06:44:13.336Z,22.67
2018-12-16T06:44:44.973Z,22.67
2018-12-16T06:45:16.584Z,22.64
2018-12-16T06:45:48.193Z,22.67
2018-12-16T06:46:19.789Z,22.67
2018-12-16T06:46:51.396Z,22.64
2018-12-16T06:47:22.986Z,22.63